Archival Weather

Eureka

Eureka, Canada (CWEU)

Report from: Wednesday, January 25, 2023 6:00 PM CST
Current time: Saturday, April 1, 2023 8:33 AM CDT

Current weather
Weather history
Weather forecast

Present weatherIce crystals
Temperature-40.0°C (-40.0°F)
Wind chill-52.7°C (-62.9°F)
Dew point-45.0°C (-49.0°F)
Winds 7 kts (3.6 m/s, 8.1 mph) Vrb
Winds variableWinds variable from Northeast (40°) to Southeast (140°)
Visibility7 mi. (11.3 km)
Clouds Scattered clouds 23,000 ft. (7,010 m)
Altimeter29.81 in.Hg (1009 mB)
Relative humidity58 %
Density altitude-7,265 ft. (-2,214 m)
Sea-level pressure101.2 kPa (1012 mB, 29.87 in.Hg)
Flight conditions Visual Meteorological Conditions
Raw dataCWEU 260000Z 09007KT 040V140 7SM IC SCT230 M40/M45 A2981 RMK CI3 IC HVY SLP116
An error has occurred. This application may no longer respond until reloaded. Reload 🗙